sensor_id;sensor_type;location;lat;lon;timestamp;pressure;altitude;pressure_sealevel;temperature;humidity
56721;BME280;53183;47.412;18.884;2022-12-18T00:01:25;100593.31;;;-3.65;99.89
56721;BME280;53183;47.412;18.884;2022-12-18T00:03:55;100603.59;;;-3.68;100.00
56721;BME280;53183;47.412;18.884;2022-12-18T00:06:24;100605.19;;;-3.75;100.00
56721;BME280;53183;47.412;18.884;2022-12-18T00:08:51;100608.50;;;-3.81;100.00
56721;BME280;53183;47.412;18.884;2022-12-18T00:11:21;100609.22;;;-3.86;100.00
56721;BME280;53183;47.412;18.884;2022-12-18T00:13:48;100624.16;;;-3.73;100.00
56721;BME280;53183;47.412;18.884;2022-12-18T00:16:19;100631.72;;;-3.81;100.00
56721;BME280;53183;47.412;18.884;2022-12-18T00:18:49;100630.09;;;-3.77;100.00
56721;BME280;53183;47.412;18.884;2022-12-18T00:21:17;100632.66;;;-3.77;100.00
56721;BME280;53183;47.412;18.884;2022-12-18T00:23:46;100645.53;;;-3.79;100.00
56721;BME280;53183;47.412;18.884;2022-12-18T00:26:16;100647.09;;;-3.85;100.00
56721;BME280;53183;47.412;18.884;2022-12-18T00:28:44;100656.53;;;-3.87;100.00
56721;BME280;53183;47.412;18.884;2022-12-18T00:31:15;100650.50;;;-3.88;100.00
56721;BME280;53183;47.412;18.884;2022-12-18T00:33:43;100658.28;;;-3.86;100.00
56721;BME280;53183;47.412;18.884;2022-12-18T00:36:18;100666.09;;;-3.83;100.00
56721;BME280;53183;47.412;18.884;2022-12-18T00:38:47;100667.66;;;-3.91;100.00
56721;BME280;53183;47.412;18.884;2022-12-18T00:41:17;100663.38;;;-3.89;100.00
56721;BME280;53183;47.412;18.884;2022-12-18T00:44:05;100663.38;;;-3.89;100.00
56721;BME280;53183;47.412;18.884;2022-12-18T00:46:33;100672.75;;;-3.94;100.00
56721;BME280;53183;47.412;18.884;2022-12-18T00:49:00;100671.97;;;-3.90;100.00
56721;BME280;53183;47.412;18.884;2022-12-18T00:51:28;100677.06;;;-3.92;100.00
56721;BME280;53183;47.412;18.884;2022-12-18T00:53:55;100681.44;;;-3.91;100.00
56721;BME280;53183;47.412;18.884;2022-12-18T00:56:23;100678.69;;;-3.97;100.00
56721;BME280;53183;47.412;18.884;2022-12-18T00:58:51;100682.16;;;-3.96;100.00
56721;BME280;53183;47.412;18.884;2022-12-18T01:01:19;100686.38;;;-4.00;100.00
56721;BME280;53183;47.412;18.884;2022-12-18T01:03:46;100682.75;;;-4.07;100.00
56721;BME280;53183;47.412;18.884;2022-12-18T01:06:16;100677.41;;;-4.14;100.00
56721;BME280;53183;47.412;18.884;2022-12-18T01:08:43;100680.03;;;-4.13;100.00
56721;BME280;53183;47.412;18.884;2022-12-18T01:11:17;100678.38;;;-4.11;100.00
56721;BME280;53183;47.412;18.884;2022-12-18T01:13:45;100680.00;;;-4.14;100.00
56721;BME280;53183;47.412;18.884;2022-12-18T01:16:14;100695.81;;;-4.01;100.00
56721;BME280;53183;47.412;18.884;2022-12-18T01:18:42;100691.47;;;-4.02;100.00
56721;BME280;53183;47.412;18.884;2022-12-18T01:21:12;100693.97;;;-4.06;100.00
56721;BME280;53183;47.412;18.884;2022-12-18T01:23:40;100696.72;;;-3.98;100.00
56721;BME280;53183;47.412;18.884;2022-12-18T01:26:14;100712.34;;;-3.94;100.00
56721;BME280;53183;47.412;18.884;2022-12-18T01:28:42;100705.37;;;-3.96;100.00
56721;BME280;53183;47.412;18.884;2022-12-18T01:33:39;100711.56;;;-3.91;100.00
56721;BME280;53183;47.412;18.884;2022-12-18T01:36:07;100717.38;;;-3.98;100.00
56721;BME280;53183;47.412;18.884;2022-12-18T01:38:34;100715.72;;;-3.95;100.00
56721;BME280;53183;47.412;18.884;2022-12-18T01:41:02;100712.03;;;-4.06;100.00
56721;BME280;53183;47.412;18.884;2022-12-18T01:43:49;100715.41;;;-4.09;100.00
56721;BME280;53183;47.412;18.884;2022-12-18T01:46:19;100722.28;;;-4.09;100.00
56721;BME280;53183;47.412;18.884;2022-12-18T01:48:49;100725.09;;;-4.00;100.00
56721;BME280;53183;47.412;18.884;2022-12-18T01:51:18;100729.31;;;-4.04;100.00
56721;BME280;53183;47.412;18.884;2022-12-18T01:53:47;100733.56;;;-4.06;100.00
56721;BME280;53183;47.412;18.884;2022-12-18T01:56:17;100736.81;;;-4.13;100.00
56721;BME280;53183;47.412;18.884;2022-12-18T01:59:03;100732.66;;;-4.08;100.00
56721;BME280;53183;47.412;18.884;2022-12-18T02:01:32;100725.00;;;-4.03;100.00
56721;BME280;53183;47.412;18.884;2022-12-18T02:04:23;100725.72;;;-4.09;100.00
56721;BME280;53183;47.412;18.884;2022-12-18T02:07:20;100728.22;;;-4.12;100.00
56721;BME280;53183;47.412;18.884;2022-12-18T02:12:56;100735.03;;;-4.15;100.00
56721;BME280;53183;47.412;18.884;2022-12-18T02:15:39;100731.56;;;-4.17;100.00
56721;BME280;53183;47.412;18.884;2022-12-18T02:18:14;100736.03;;;-4.10;100.00
56721;BME280;53183;47.412;18.884;2022-12-18T02:20:52;100741.06;;;-4.15;100.00
56721;BME280;53183;47.412;18.884;2022-12-18T02:26:28;100750.50;;;-4.15;100.00
56721;BME280;53183;47.412;18.884;2022-12-18T02:29:15;100752.19;;;-4.17;100.00
56721;BME280;53183;47.412;18.884;2022-12-18T02:31:52;100763.41;;;-4.15;100.00
56721;BME280;53183;47.412;18.884;2022-12-18T02:34:24;100756.47;;;-4.18;100.00
56721;BME280;53183;47.412;18.884;2022-12-18T02:36:54;100761.88;;;-4.09;100.00
56721;BME280;53183;47.412;18.884;2022-12-18T02:39:26;100764.19;;;-4.18;100.00
56721;BME280;53183;47.412;18.884;2022-12-18T02:41:57;100767.12;;;-4.06;100.00
56721;BME280;53183;47.412;18.884;2022-12-18T02:44:25;100768.75;;;-4.09;100.00
56721;BME280;53183;47.412;18.884;2022-12-18T02:46:53;100772.78;;;-4.19;100.00
56721;BME280;53183;47.412;18.884;2022-12-18T02:49:35;100772.84;;;-4.17;100.00
56721;BME280;53183;47.412;18.884;2022-12-18T02:57:32;100779.13;;;-4.08;100.00
56721;BME280;53183;47.412;18.884;2022-12-18T03:00:07;100784.16;;;-4.12;100.00
56721;BME280;53183;47.412;18.884;2022-12-18T03:05:30;100781.81;;;-4.03;100.00
56721;BME280;53183;47.412;18.884;2022-12-18T03:08:12;100800.34;;;-4.18;100.00
56721;BME280;53183;47.412;18.884;2022-12-18T03:10:58;100802.97;;;-4.16;100.00
56721;BME280;53183;47.412;18.884;2022-12-18T03:13:35;100809.19;;;-4.10;100.00
56721;BME280;53183;47.412;18.884;2022-12-18T03:16:06;100804.56;;;-4.21;100.00
56721;BME280;53183;47.412;18.884;2022-12-18T03:18:49;100802.97;;;-4.16;100.00
56721;BME280;53183;47.412;18.884;2022-12-18T03:21:21;100813.19;;;-4.21;100.00
56721;BME280;53183;47.412;18.884;2022-12-18T03:23:51;100814.06;;;-4.20;100.00
56721;BME280;53183;47.412;18.884;2022-12-18T03:26:23;100813.03;;;-4.27;100.00
56721;BME280;53183;47.412;18.884;2022-12-18T03:28:56;100811.34;;;-4.25;100.00
56721;BME280;53183;47.412;18.884;2022-12-18T03:31:29;100816.50;;;-4.25;100.00
56721;BME280;53183;47.412;18.884;2022-12-18T03:34:09;100816.06;;;-4.10;100.00
56721;BME280;53183;47.412;18.884;2022-12-18T03:36:40;100827.75;;;-4.23;100.00
56721;BME280;53183;47.412;18.884;2022-12-18T03:39:07;100835.41;;;-4.26;100.00
56721;BME280;53183;47.412;18.884;2022-12-18T03:41:46;100841.31;;;-4.30;100.00
56721;BME280;53183;47.412;18.884;2022-12-18T03:44:55;100843.03;;;-4.31;100.00
56721;BME280;53183;47.412;18.884;2022-12-18T03:47:58;100837.97;;;-4.28;100.00
56721;BME280;53183;47.412;18.884;2022-12-18T03:53:42;100844.88;;;-4.27;100.00
56721;BME280;53183;47.412;18.884;2022-12-18T03:56:15;100849.34;;;-4.21;100.00
56721;BME280;53183;47.412;18.884;2022-12-18T03:58:43;100842.22;;;-4.28;100.00
56721;BME280;53183;47.412;18.884;2022-12-18T04:01:16;100849.06;;;-4.30;100.00
56721;BME280;53183;47.412;18.884;2022-12-18T04:03:46;100846.50;;;-4.29;100.00
56721;BME280;53183;47.412;18.884;2022-12-18T04:06:16;100850.63;;;-4.35;100.00
56721;BME280;53183;47.412;18.884;2022-12-18T04:08:46;100853.09;;;-4.40;100.00
56721;BME280;53183;47.412;18.884;2022-12-18T04:11:15;100856.84;;;-4.29;100.00
56721;BME280;53183;47.412;18.884;2022-12-18T04:13:43;100857.37;;;-4.40;100.00
56721;BME280;53183;47.412;18.884;2022-12-18T04:16:12;100861.63;;;-4.41;100.00
56721;BME280;53183;47.412;18.884;2022-12-18T04:18:39;100858.09;;;-4.44;100.00
56721;BME280;53183;47.412;18.884;2022-12-18T04:21:07;100859.69;;;-4.50;100.00
56721;BME280;53183;47.412;18.884;2022-12-18T04:23:35;100861.69;;;-4.39;100.00
56721;BME280;53183;47.412;18.884;2022-12-18T04:26:03;100869.81;;;-4.27;100.00
56721;BME280;53183;47.412;18.884;2022-12-18T04:28:35;100865.94;;;-4.41;100.00
56721;BME280;53183;47.412;18.884;2022-12-18T04:31:03;100871.91;;;-4.44;100.00
56721;BME280;53183;47.412;18.884;2022-12-18T04:33:30;100870.75;;;-4.54;100.00
56721;BME280;53183;47.412;18.884;2022-12-18T04:35:57;100875.25;;;-4.46;100.00
56721;BME280;53183;47.412;18.884;2022-12-18T04:38:25;100875.25;;;-4.46;100.00
56721;BME280;53183;47.412;18.884;2022-12-18T04:40:55;100877.66;;;-4.53;100.00
56721;BME280;53183;47.412;18.884;2022-12-18T04:43:23;100886.16;;;-4.57;100.00
56721;BME280;53183;47.412;18.884;2022-12-18T04:45:51;100887.87;;;-4.56;100.00
56721;BME280;53183;47.412;18.884;2022-12-18T04:48:18;100899.22;;;-4.51;100.00
56721;BME280;53183;47.412;18.884;2022-12-18T04:50:46;100894.69;;;-4.58;100.00
56721;BME280;53183;47.412;18.884;2022-12-18T04:53:13;100907.50;;;-4.61;100.00
56721;BME280;53183;47.412;18.884;2022-12-18T04:55:40;100906.78;;;-4.57;100.00
56721;BME280;53183;47.412;18.884;2022-12-18T04:58:07;100909.50;;;-4.52;100.00
56721;BME280;53183;47.412;18.884;2022-12-18T05:00:35;100910.88;;;-4.63;100.00
56721;BME280;53183;47.412;18.884;2022-12-18T05:03:02;100915.31;;;-4.58;100.00
56721;BME280;53183;47.412;18.884;2022-12-18T05:05:30;100921.63;;;-4.50;100.00
56721;BME280;53183;47.412;18.884;2022-12-18T05:07:57;100920.97;;;-4.42;99.15
56721;BME280;53183;47.412;18.884;2022-12-18T05:10:24;100922.44;;;-4.51;99.92
56721;BME280;53183;47.412;18.884;2022-12-18T05:12:51;100925.56;;;-4.61;100.00
56721;BME280;53183;47.412;18.884;2022-12-18T05:15:31;100923.03;;;-4.59;100.00
56721;BME280;53183;47.412;18.884;2022-12-18T05:17:59;100917.50;;;-4.72;100.00
56721;BME280;53183;47.412;18.884;2022-12-18T05:20:28;100922.56;;;-4.75;100.00
56721;BME280;53183;47.412;18.884;2022-12-18T05:22:55;100923.62;;;-4.68;100.00
56721;BME280;53183;47.412;18.884;2022-12-18T05:25:23;100931.56;;;-4.62;100.00
56721;BME280;53183;47.412;18.884;2022-12-18T05:27:50;100921.13;;;-4.65;100.00
56721;BME280;53183;47.412;18.884;2022-12-18T05:30:17;100933.03;;;-4.70;100.00
56721;BME280;53183;47.412;18.884;2022-12-18T05:32:44;100928.78;;;-4.68;100.00
56721;BME280;53183;47.412;18.884;2022-12-18T05:35:11;100932.94;;;-4.73;100.00
56721;BME280;53183;47.412;18.884;2022-12-18T05:37:38;100937.34;;;-4.69;100.00
56721;BME280;53183;47.412;18.884;2022-12-18T05:40:10;100942.03;;;-4.57;100.00
56721;BME280;53183;47.412;18.884;2022-12-18T05:42:37;100941.41;;;-4.49;100.00
56721;BME280;53183;47.412;18.884;2022-12-18T05:45:05;100952.34;;;-4.57;100.00
56721;BME280;53183;47.412;18.884;2022-12-18T05:47:32;100947.56;;;-4.72;100.00
56721;BME280;53183;47.412;18.884;2022-12-18T05:49:59;100957.91;;;-4.71;100.00
56721;BME280;53183;47.412;18.884;2022-12-18T05:52:26;100950.06;;;-4.75;100.00
56721;BME280;53183;47.412;18.884;2022-12-18T05:54:54;100956.19;;;-4.72;100.00
56721;BME280;53183;47.412;18.884;2022-12-18T05:57:21;100959.44;;;-4.77;100.00
56721;BME280;53183;47.412;18.884;2022-12-18T05:59:48;100961.44;;;-4.68;100.00
56721;BME280;53183;47.412;18.884;2022-12-18T06:02:15;100961.22;;;-4.76;100.00
56721;BME280;53183;47.412;18.884;2022-12-18T06:04:43;100968.94;;;-4.76;100.00
56721;BME280;53183;47.412;18.884;2022-12-18T06:07:10;100967.53;;;-4.66;100.00
56721;BME280;53183;47.412;18.884;2022-12-18T06:09:37;100980.97;;;-4.77;100.00
56721;BME280;53183;47.412;18.884;2022-12-18T06:12:04;100974.91;;;-4.77;100.00
56721;BME280;53183;47.412;18.884;2022-12-18T06:14:32;100974.22;;;-4.72;100.00
56721;BME280;53183;47.412;18.884;2022-12-18T06:16:59;100978.50;;;-4.74;100.00
56721;BME280;53183;47.412;18.884;2022-12-18T06:19:26;100974.00;;;-4.79;100.00
56721;BME280;53183;47.412;18.884;2022-12-18T06:21:53;100983.53;;;-4.77;100.00
56721;BME280;53183;47.412;18.884;2022-12-18T06:24:20;100988.59;;;-4.80;100.00
56721;BME280;53183;47.412;18.884;2022-12-18T06:26:47;100987.75;;;-4.79;100.00
56721;BME280;53183;47.412;18.884;2022-12-18T06:29:14;100993.22;;;-4.69;100.00
56721;BME280;53183;47.412;18.884;2022-12-18T06:31:41;100999.16;;;-4.72;100.00
56721;BME280;53183;47.412;18.884;2022-12-18T06:34:09;101004.31;;;-4.72;100.00
56721;BME280;53183;47.412;18.884;2022-12-18T06:36:36;101007.97;;;-4.65;100.00
56721;BME280;53183;47.412;18.884;2022-12-18T06:39:03;101021.69;;;-4.66;100.00
56721;BME280;53183;47.412;18.884;2022-12-18T06:41:31;101014.62;;;-4.72;100.00
56721;BME280;53183;47.412;18.884;2022-12-18T06:43:58;101010.34;;;-4.72;100.00
56721;BME280;53183;47.412;18.884;2022-12-18T06:46:26;101018.34;;;-4.64;100.00
56721;BME280;53183;47.412;18.884;2022-12-18T06:48:53;101019.34;;;-4.59;100.00
56721;BME280;53183;47.412;18.884;2022-12-18T06:51:22;101018.78;;;-4.50;100.00
56721;BME280;53183;47.412;18.884;2022-12-18T06:53:50;101023.09;;;-4.49;100.00
56721;BME280;53183;47.412;18.884;2022-12-18T06:56:17;101024.81;;;-4.50;100.00
56721;BME280;53183;47.412;18.884;2022-12-18T06:58:44;101023.19;;;-4.46;100.00
56721;BME280;53183;47.412;18.884;2022-12-18T07:01:12;101028.75;;;-4.34;100.00
56721;BME280;53183;47.412;18.884;2022-12-18T07:03:41;101042.44;;;-4.36;100.00
56721;BME280;53183;47.412;18.884;2022-12-18T07:06:17;101050.28;;;-4.33;100.00
56721;BME280;53183;47.412;18.884;2022-12-18T07:08:46;101045.41;;;-4.24;100.00
56721;BME280;53183;47.412;18.884;2022-12-18T07:11:14;101044.78;;;-4.15;99.34
56721;BME280;53183;47.412;18.884;2022-12-18T07:13:42;101050.91;;;-4.12;98.25
56721;BME280;53183;47.412;18.884;2022-12-18T07:16:12;101056.78;;;-4.17;98.35
56721;BME280;53183;47.412;18.884;2022-12-18T07:18:48;101063.91;;;-4.10;98.84
56721;BME280;53183;47.412;18.884;2022-12-18T07:21:18;101057.84;;;-4.11;98.69
56721;BME280;53183;47.412;18.884;2022-12-18T07:23:45;101064.78;;;-4.08;98.19
56721;BME280;53183;47.412;18.884;2022-12-18T07:26:17;101067.34;;;-4.10;98.82
56721;BME280;53183;47.412;18.884;2022-12-18T07:28:45;101075.38;;;-4.01;98.68
56721;BME280;53183;47.412;18.884;2022-12-18T07:31:18;101082.38;;;-3.96;98.22
56721;BME280;53183;47.412;18.884;2022-12-18T07:33:48;101083.66;;;-3.82;97.35
56721;BME280;53183;47.412;18.884;2022-12-18T07:36:15;101087.84;;;-3.87;97.06
56721;BME280;53183;47.412;18.884;2022-12-18T07:38:42;101093.88;;;-3.87;97.54
56721;BME280;53183;47.412;18.884;2022-12-18T07:41:11;101093.53;;;-3.69;96.24
56721;BME280;53183;47.412;18.884;2022-12-18T07:43:40;101099.22;;;-3.52;95.77
56721;BME280;53183;47.412;18.884;2022-12-18T07:46:08;101098.00;;;-3.63;95.96
56721;BME280;53183;47.412;18.884;2022-12-18T07:48:36;101105.97;;;-3.56;95.43
56721;BME280;53183;47.412;18.884;2022-12-18T07:51:05;101106.81;;;-3.57;95.56
56721;BME280;53183;47.412;18.884;2022-12-18T07:53:34;101112.44;;;-3.41;94.28
56721;BME280;53183;47.412;18.884;2022-12-18T07:56:05;101120.38;;;-3.35;94.10
56721;BME280;53183;47.412;18.884;2022-12-18T07:58:52;101123.97;;;-3.30;94.48
56721;BME280;53183;47.412;18.884;2022-12-18T08:01:21;101127.47;;;-3.28;94.38
56721;BME280;53183;47.412;18.884;2022-12-18T08:03:48;101128.44;;;-3.24;94.34
56721;BME280;53183;47.412;18.884;2022-12-18T08:06:18;101137.94;;;-3.23;95.12
56721;BME280;53183;47.412;18.884;2022-12-18T08:08:52;101142.28;;;-3.22;94.43
56721;BME280;53183;47.412;18.884;2022-12-18T08:11:19;101140.12;;;-3.07;93.34
56721;BME280;53183;47.412;18.884;2022-12-18T08:13:47;101148.03;;;-3.02;92.41
56721;BME280;53183;47.412;18.884;2022-12-18T08:16:16;101142.94;;;-2.99;92.54
56721;BME280;53183;47.412;18.884;2022-12-18T08:18:43;101155.41;;;-2.85;91.61
56721;BME280;53183;47.412;18.884;2022-12-18T08:21:12;101153.84;;;-2.78;90.51
56721;BME280;53183;47.412;18.884;2022-12-18T08:23:40;101163.78;;;-2.62;89.99
56721;BME280;53183;47.412;18.884;2022-12-18T08:26:10;101162.91;;;-2.62;90.07
56721;BME280;53183;47.412;18.884;2022-12-18T08:28:37;101157.72;;;-2.62;89.77
56721;BME280;53183;47.412;18.884;2022-12-18T08:31:05;101163.25;;;-2.50;88.59
56721;BME280;53183;47.412;18.884;2022-12-18T08:33:33;101168.09;;;-2.29;87.30
56721;BME280;53183;47.412;18.884;2022-12-18T08:36:01;101168.09;;;-2.27;87.46
56721;BME280;53183;47.412;18.884;2022-12-18T08:38:28;101163.75;;;-2.30;87.55
56721;BME280;53183;47.412;18.884;2022-12-18T08:41:00;101173.56;;;-2.17;86.71
56721;BME280;53183;47.412;18.884;2022-12-18T08:43:27;101170.38;;;-2.05;84.65
56721;BME280;53183;47.412;18.884;2022-12-18T08:46:18;101174.69;;;-2.07;85.60
56721;BME280;53183;47.412;18.884;2022-12-18T08:48:45;101178.16;;;-2.05;85.38
56721;BME280;53183;47.412;18.884;2022-12-18T08:51:15;101166.28;;;-1.97;84.56
56721;BME280;53183;47.412;18.884;2022-12-18T08:53:43;101181.22;;;-1.85;84.45
56721;BME280;53183;47.412;18.884;2022-12-18T08:56:12;101171.88;;;-1.78;83.51
56721;BME280;53183;47.412;18.884;2022-12-18T08:58:40;101175.53;;;-1.70;82.99
56721;BME280;53183;47.412;18.884;2022-12-18T09:01:09;101180.66;;;-1.73;82.16
56721;BME280;53183;47.412;18.884;2022-12-18T09:03:37;101186.13;;;-1.61;82.81
56721;BME280;53183;47.412;18.884;2022-12-18T09:06:06;101183.16;;;-1.38;82.09
56721;BME280;53183;47.412;18.884;2022-12-18T09:08:33;101194.59;;;-1.29;81.93
56721;BME280;53183;47.412;18.884;2022-12-18T09:11:13;101190.41;;;-1.24;82.74
56721;BME280;53183;47.412;18.884;2022-12-18T09:13:40;101188.09;;;-1.11;82.54
56721;BME280;53183;47.412;18.884;2022-12-18T09:16:09;101194.19;;;-1.08;82.98
56721;BME280;53183;47.412;18.884;2022-12-18T09:18:36;101200.47;;;-0.98;81.32
56721;BME280;53183;47.412;18.884;2022-12-18T09:21:12;101198.66;;;-1.01;80.89
56721;BME280;53183;47.412;18.884;2022-12-18T09:23:39;101196.28;;;-0.90;79.97
56721;BME280;53183;47.412;18.884;2022-12-18T09:26:07;101196.50;;;-0.79;78.60
56721;BME280;53183;47.412;18.884;2022-12-18T09:28:34;101199.13;;;-0.78;78.42
56721;BME280;53183;47.412;18.884;2022-12-18T09:31:06;101187.94;;;-0.75;78.65
56721;BME280;53183;47.412;18.884;2022-12-18T09:33:35;101189.75;;;-0.69;78.67
56721;BME280;53183;47.412;18.884;2022-12-18T09:36:05;101193.75;;;-0.41;75.37
56721;BME280;53183;47.412;18.884;2022-12-18T09:38:34;101189.56;;;-0.35;75.46
56721;BME280;53183;47.412;18.884;2022-12-18T09:41:13;101196.59;;;-0.29;75.87
56721;BME280;53183;47.412;18.884;2022-12-18T09:43:48;101193.13;;;-0.28;73.84
56721;BME280;53183;47.412;18.884;2022-12-18T09:46:25;101194.06;;;-0.25;73.01
56721;BME280;53183;47.412;18.884;2022-12-18T09:48:58;101194.06;;;-0.26;73.44
56721;BME280;53183;47.412;18.884;2022-12-18T09:51:29;101200.25;;;-0.18;69.95
56721;BME280;53183;47.412;18.884;2022-12-18T09:54:02;101202.94;;;-0.12;69.50
56721;BME280;53183;47.412;18.884;2022-12-18T09:56:35;101201.09;;;-0.19;67.45
56721;BME280;53183;47.412;18.884;2022-12-18T09:59:06;101199.31;;;-0.23;67.19
56721;BME280;53183;47.412;18.884;2022-12-18T10:01:41;101195.97;;;-0.16;69.11
56721;BME280;53183;47.412;18.884;2022-12-18T10:04:11;101196.09;;;-0.07;69.05
56721;BME280;53183;47.412;18.884;2022-12-18T10:09:23;101199.69;;;0.00;69.49
56721;BME280;53183;47.412;18.884;2022-12-18T10:12:31;101204.13;;;0.07;68.87
56721;BME280;53183;47.412;18.884;2022-12-18T10:17:48;101202.87;;;0.37;66.73
56721;BME280;53183;47.412;18.884;2022-12-18T10:20:32;101195.16;;;0.43;67.40
56721;BME280;53183;47.412;18.884;2022-12-18T10:26:06;101198.94;;;0.63;66.71
56721;BME280;53183;47.412;18.884;2022-12-18T10:28:36;101186.00;;;0.69;68.53
56721;BME280;53183;47.412;18.884;2022-12-18T10:31:14;101185.16;;;0.72;69.58
56721;BME280;53183;47.412;18.884;2022-12-18T10:33:43;101184.28;;;0.72;70.69
56721;BME280;53183;47.412;18.884;2022-12-18T10:36:11;101187.97;;;0.86;68.90
56721;BME280;53183;47.412;18.884;2022-12-18T10:38:38;101184.31;;;0.75;69.66
56721;BME280;53183;47.412;18.884;2022-12-18T10:41:14;101182.59;;;0.74;70.72
56721;BME280;53183;47.412;18.884;2022-12-18T10:44:19;101189.47;;;0.72;71.80
56721;BME280;53183;47.412;18.884;2022-12-18T10:46:49;101187.84;;;0.77;70.54
56721;BME280;53183;47.412;18.884;2022-12-18T10:49:20;101198.06;;;0.63;70.02
56721;BME280;53183;47.412;18.884;2022-12-18T10:51:48;101199.81;;;0.65;70.58
56721;BME280;53183;47.412;18.884;2022-12-18T10:56:43;101192.84;;;0.64;69.78
56721;BME280;53183;47.412;18.884;2022-12-18T10:59:14;101198.97;;;0.68;69.66
56721;BME280;53183;47.412;18.884;2022-12-18T11:01:57;101193.00;;;0.75;68.09
56721;BME280;53183;47.412;18.884;2022-12-18T11:04:33;101188.75;;;0.82;67.01
56721;BME280;53183;47.412;18.884;2022-12-18T11:07:07;101182.63;;;0.77;65.94
56721;BME280;53183;47.412;18.884;2022-12-18T11:09:37;101181.50;;;0.56;67.27
56721;BME280;53183;47.412;18.884;2022-12-18T11:12:19;101170.41;;;0.71;66.23
56721;BME280;53183;47.412;18.884;2022-12-18T11:14:54;101169.50;;;0.67;66.69
56721;BME280;53183;47.412;18.884;2022-12-18T11:17:34;101172.00;;;0.61;65.12
56721;BME280;53183;47.412;18.884;2022-12-18T11:20:05;101169.53;;;0.70;64.69
56721;BME280;53183;47.412;18.884;2022-12-18T11:22:37;101168.75;;;0.76;64.96
56721;BME280;53183;47.412;18.884;2022-12-18T11:28:04;101172.22;;;0.77;66.43
56721;BME280;53183;47.412;18.884;2022-12-18T11:30:33;101170.62;;;0.88;66.11
56721;BME280;53183;47.412;18.884;2022-12-18T11:33:12;101166.34;;;0.94;64.86
56721;BME280;53183;47.412;18.884;2022-12-18T11:35:51;101163.78;;;0.98;65.27
56721;BME280;53183;47.412;18.884;2022-12-18T11:38:34;101161.31;;;1.07;64.52
56721;BME280;53183;47.412;18.884;2022-12-18T11:44:27;101163.19;;;1.22;65.41
56721;BME280;53183;47.412;18.884;2022-12-18T11:47:00;101174.56;;;1.27;64.22
56721;BME280;53183;47.412;18.884;2022-12-18T11:49:33;101168.50;;;1.31;64.18
56721;BME280;53183;47.412;18.884;2022-12-18T11:52:22;101157.19;;;1.26;65.10
56721;BME280;53183;47.412;18.884;2022-12-18T11:54:52;101155.50;;;1.31;64.90
56721;BME280;53183;47.412;18.884;2022-12-18T11:57:55;101155.56;;;1.37;64.52
56721;BME280;53183;47.412;18.884;2022-12-18T12:00:26;101147.78;;;1.38;64.22
56721;BME280;53183;47.412;18.884;2022-12-18T12:06:49;101145.13;;;1.37;63.82
56721;BME280;53183;47.412;18.884;2022-12-18T12:09:22;101147.81;;;1.43;63.10
56721;BME280;53183;47.412;18.884;2022-12-18T12:17:14;101141.69;;;1.39;63.72
56721;BME280;53183;47.412;18.884;2022-12-18T12:22:43;101148.53;;;1.31;65.19
56721;BME280;53183;47.412;18.884;2022-12-18T12:25:49;101146.09;;;1.45;64.42
56721;BME280;53183;47.412;18.884;2022-12-18T12:28:49;101145.28;;;1.49;63.72
56721;BME280;53183;47.412;18.884;2022-12-18T12:31:51;101144.44;;;1.53;64.46
56721;BME280;53183;47.412;18.884;2022-12-18T12:34:34;101154.19;;;1.74;62.77
56721;BME280;53183;47.412;18.884;2022-12-18T12:39:39;101145.47;;;1.71;62.44
56721;BME280;53183;47.412;18.884;2022-12-18T12:42:35;101146.34;;;1.74;62.31
56721;BME280;53183;47.412;18.884;2022-12-18T12:45:50;101148.94;;;1.70;62.60
56721;BME280;53183;47.412;18.884;2022-12-18T12:51:22;101168.81;;;1.60;63.47
56721;BME280;53183;47.412;18.884;2022-12-18T12:53:51;101164.50;;;1.63;63.95
56721;BME280;53183;47.412;18.884;2022-12-18T12:56:20;101170.69;;;1.72;63.38
56721;BME280;53183;47.412;18.884;2022-12-18T12:59:15;101179.37;;;1.72;62.74
56721;BME280;53183;47.412;18.884;2022-12-18T13:02:02;101183.69;;;1.69;63.25
56721;BME280;53183;47.412;18.884;2022-12-18T13:07:57;101186.31;;;1.73;62.60
56721;BME280;53183;47.412;18.884;2022-12-18T13:15:43;101190.72;;;1.79;61.83
56721;BME280;53183;47.412;18.884;2022-12-18T13:18:15;101191.53;;;1.72;62.17
56721;BME280;53183;47.412;18.884;2022-12-18T13:20:44;101192.41;;;1.72;62.39
56721;BME280;53183;47.412;18.884;2022-12-18T13:23:35;101190.59;;;1.67;62.29
56721;BME280;53183;47.412;18.884;2022-12-18T13:31:57;101194.81;;;1.52;64.33
56721;BME280;53183;47.412;18.884;2022-12-18T13:34:24;101190.47;;;1.54;62.95
56721;BME280;53183;47.412;18.884;2022-12-18T13:36:57;101198.25;;;1.51;62.79
56721;BME280;53183;47.412;18.884;2022-12-18T13:39:44;101205.12;;;1.42;65.11
56721;BME280;53183;47.412;18.884;2022-12-18T13:44:59;101197.09;;;1.25;66.56
56721;BME280;53183;47.412;18.884;2022-12-18T13:47:34;101204.91;;;1.23;67.50
56721;BME280;53183;47.412;18.884;2022-12-18T13:50:25;101209.25;;;1.23;67.92
56721;BME280;53183;47.412;18.884;2022-12-18T13:53:03;101216.16;;;1.21;68.34
56721;BME280;53183;47.412;18.884;2022-12-18T13:55:32;101212.63;;;1.17;69.16
56721;BME280;53183;47.412;18.884;2022-12-18T13:58:06;101212.59;;;1.14;69.31
56721;BME280;53183;47.412;18.884;2022-12-18T14:00:34;101210.72;;;1.02;69.75
56721;BME280;53183;47.412;18.884;2022-12-18T14:03:01;101215.78;;;0.91;69.80
56721;BME280;53183;47.412;18.884;2022-12-18T14:05:34;101219.03;;;0.75;70.72
56721;BME280;53183;47.412;18.884;2022-12-18T14:08:08;101221.72;;;0.81;69.85
56721;BME280;53183;47.412;18.884;2022-12-18T14:10:43;101220.75;;;0.75;69.53
56721;BME280;53183;47.412;18.884;2022-12-18T14:13:30;101222.34;;;0.63;70.42
56721;BME280;53183;47.412;18.884;2022-12-18T14:16:01;101220.56;;;0.59;70.89